Time;durP1;ratioP1;P1;durP2;ratioP2;P2;SDS_P1;SDS_P2;PMS_P1;PMS_P2;Temp;Humidity;BMP_temperature;BMP_pressure;BME280_temperature;BME280_humidity;BME280_pressure;Samples;Min_cycle;Max_cycle;Signal;HPM_P1;HPM_P2
2021/01/30 00:02:16;;;;;;;38.22;18.15;;;;;;;4.27;62.27;97627.91;4852965;29;20046;-82
2021/01/30 00:04:42;;;;;;;34.53;18.00;;;;;;;4.22;62.76;97635.81;4836191;29;20064;-82
2021/01/30 00:07:11;;;;;;;33.05;17.55;;;;;;;4.18;63.24;97626.06;4830956;29;20526;-82
2021/01/30 00:14:59;;;;;;;24.48;15.07;;;;;;;4.06;63.79;97615.78;5526852;23;20060;-81
2021/01/30 00:21:20;;;;;;;24.85;14.18;;;;;;;3.72;65.98;97605.78;5153521;23;21230;31
2021/01/30 00:27:48;;;;;;;20.33;11.15;;;;;;;3.61;66.04;97607.63;5937491;23;20061;31
2021/01/30 00:30:16;;;;;;;25.55;11.85;;;;;;;3.51;66.83;97589.94;4910513;23;19922;-78
2021/01/30 00:32:42;;;;;;;24.42;13.32;;;;;;;3.43;67.44;97595.75;4848743;29;20041;-78
2021/01/30 00:35:09;;;;;;;21.88;12.23;;;;;;;3.41;67.23;97603.16;4848546;29;20116;-78
2021/01/30 00:41:14;;;;;;;21.13;11.68;;;;;;;3.19;67.46;97578.56;5391010;23;20049;-81
2021/01/30 00:43:51;;;;;;;23.08;12.70;;;;;;;3.21;67.70;97588.88;4847647;29;20050;-82
2021/01/30 00:46:29;;;;;;;22.27;12.40;;;;;;;3.15;67.33;97569.59;4852178;29;20034;-83
2021/01/30 00:52:24;;;;;;;21.98;11.43;;;;;;;2.98;68.06;97561.91;5303548;23;20037;-82
2021/01/30 00:54:52;;;;;;;22.60;12.25;;;;;;;2.92;67.90;97564.81;4850928;29;20080;-80
2021/01/30 00:57:18;;;;;;;28.80;13.65;;;;;;;2.86;68.32;97559.53;4870864;29;20033;-80
2021/01/30 00:59:44;;;;;;;26.35;12.48;;;;;;;2.77;68.78;97563.75;4851230;29;20041;-80
2021/01/30 01:02:14;;;;;;;22.60;12.27;;;;;;;2.76;69.02;97561.34;4855530;29;20029;-82
2021/01/30 01:22:41;;;;;;;24.38;12.60;;;;;;;2.62;69.86;97526.75;4875549;29;20053;-81
2021/01/30 01:25:08;;;;;;;22.45;14.65;;;;;;;2.64;69.90;97519.38;4853995;29;20104;-79
2021/01/30 01:27:33;;;;;;;24.65;13.40;;;;;;;2.66;69.52;97511.97;4852668;29;20037;-78
2021/01/30 01:29:59;;;;;;;19.67;12.77;;;;;;;2.69;69.55;97503.53;4853074;29;20030;-79
2021/01/30 01:32:26;;;;;;;25.48;12.90;;;;;;;2.66;69.37;97504.84;4851338;29;20120;-79
2021/01/30 01:35:14;;;;;;;23.10;13.35;;;;;;;2.72;69.53;97495.88;4873717;29;20030;-81
2021/01/30 01:37:39;;;;;;;23.92;13.25;;;;;;;2.76;69.79;97487.44;4851602;29;20061;-79
2021/01/30 01:40:06;;;;;;;26.10;14.10;;;;;;;2.79;69.79;97492.19;4850103;29;20423;-77
2021/01/30 01:42:31;;;;;;;22.88;13.27;;;;;;;2.83;69.82;97490.59;4850345;29;20097;-78
2021/01/30 01:44:56;;;;;;;28.20;14.77;;;;;;;2.85;70.15;97491.91;4871532;29;20112;-81
2021/01/30 01:47:37;;;;;;;24.25;13.48;;;;;;;2.90;69.93;97482.44;4848567;29;20082;-81
2021/01/30 01:50:38;;;;;;;23.27;13.55;;;;;;;2.93;69.37;97474.78;4851901;29;20033;-79
2021/01/30 01:53:30;;;;;;;26.85;13.48;;;;;;;2.95;69.73;97463.94;4836149;29;20134;-79
2021/01/30 01:56:06;;;;;;;27.77;13.02;;;;;;;2.95;69.54;97459.44;4848064;29;20042;-79
2021/01/30 01:58:37;;;;;;;24.55;13.50;;;;;;;2.98;69.52;97452.84;4853153;29;20013;-80
2021/01/30 02:01:03;;;;;;;25.45;13.73;;;;;;;2.97;69.67;97457.34;4857265;29;20026;-80
2021/01/30 02:03:32;;;;;;;25.10;13.63;;;;;;;2.93;69.75;97437.00;5034751;23;20840;-81
2021/01/30 02:08:39;;;;;;;27.95;13.77;;;;;;;2.97;70.07;97419.59;5205051;23;19920;-82
2021/01/30 02:11:05;;;;;;;25.98;13.43;;;;;;;2.96;69.78;97428.56;4847162;29;20034;-82
2021/01/30 02:13:35;;;;;;;21.02;12.52;;;;;;;2.97;69.96;97419.59;4836629;29;20033;-81
2021/01/30 02:16:43;;;;;;;26.73;14.18;;;;;;;2.96;70.01;97424.06;4849445;29;20030;-81
2021/01/30 02:19:20;;;;;;;28.50;13.43;;;;;;;2.95;70.14;97413.78;4837296;29;20063;-80
2021/01/30 02:21:57;;;;;;;27.15;15.45;;;;;;;2.96;69.75;97423.28;4844602;29;20067;-78
2021/01/30 02:24:55;;;;;;;25.25;13.57;;;;;;;2.93;70.38;97408.75;4846672;29;20029;-79
2021/01/30 02:27:26;;;;;;;30.17;14.80;;;;;;;2.92;70.00;97409.00;4849318;29;20037;-80
2021/01/30 02:30:14;;;;;;;22.52;13.43;;;;;;;2.91;70.21;97405.59;4848707;29;20589;-80
2021/01/30 02:33:13;;;;;;;22.42;14.23;;;;;;;2.91;70.25;97408.22;4848459;29;20041;-78
2021/01/30 02:36:14;;;;;;;22.15;13.65;;;;;;;2.91;70.50;97405.59;4831064;29;20034;-80
2021/01/30 02:38:46;;;;;;;21.13;13.10;;;;;;;2.91;70.09;97402.16;4848209;29;20391;-79
2021/01/30 02:41:17;;;;;;;22.05;13.73;;;;;;;2.91;70.39;97394.25;4851987;29;20029;-78
2021/01/30 02:43:46;;;;;;;23.60;12.48;;;;;;;2.93;70.55;97390.28;4851711;29;20017;-78
2021/01/30 02:46:20;;;;;;;25.38;14.35;;;;;;;2.95;70.33;97395.28;4868131;29;20076;-78
2021/01/30 02:48:49;;;;;;;21.00;12.68;;;;;;;2.96;70.45;97383.66;4851571;29;20025;-79
2021/01/30 02:57:42;;;;;;;22.85;13.43;;;;;;;2.81;70.72;97355.44;4865128;29;20072;-78
2021/01/30 03:00:10;;;;;;;25.75;14.50;;;;;;;2.81;70.54;97361.50;4851759;29;20037;-80
2021/01/30 03:02:36;;;;;;;;;;;;;;;2.79;70.78;97360.97;4853700;29;20029;-78
2021/01/30 03:05:04;;;;;;;23.55;12.10;;;;;;;2.78;70.83;97353.31;4850929;29;20006;-77
2021/01/30 03:07:45;;;;;;;27.42;14.20;;;;;;;2.76;71.39;97347.50;4848346;29;20596;-77
2021/01/30 03:10:30;;;;;;;28.17;14.88;;;;;;;2.78;71.58;97338.25;4867175;29;20498;-76
2021/01/30 03:13:16;;;;;;;24.10;14.13;;;;;;;2.80;71.75;97340.66;4866262;29;20112;-77
2021/01/30 03:15:52;;;;;;;26.40;14.07;;;;;;;2.76;71.84;97315.84;4849685;29;20089;-78
2021/01/30 03:18:27;;;;;;;24.20;14.32;;;;;;;2.74;72.28;97315.34;4851125;29;20029;-77
2021/01/30 03:20:53;;;;;;;23.77;13.55;;;;;;;2.66;72.25;97316.66;4849533;29;20542;-77
2021/01/30 03:23:19;;;;;;;28.95;15.40;;;;;;;2.61;72.28;97314.81;4850059;29;20033;-77
2021/01/30 03:25:47;;;;;;;25.63;16.20;;;;;;;2.59;72.57;97287.09;4850564;29;20033;-77
2021/01/30 03:28:13;;;;;;;22.45;14.07;;;;;;;2.54;72.86;97295.84;4850287;29;20041;-77
2021/01/30 03:30:39;;;;;;;28.92;13.88;;;;;;;2.52;73.13;97297.94;4850084;29;20040;-77
2021/01/30 03:33:07;;;;;;;23.50;15.07;;;;;;;2.53;73.06;97286.34;4846778;29;20029;-81
2021/01/30 03:35:33;;;;;;;23.25;14.38;;;;;;;2.51;72.88;97286.59;4845421;29;20041;-78
2021/01/30 03:37:58;;;;;;;27.08;15.05;;;;;;;2.55;73.10;97285.00;4841512;29;20407;-81
2021/01/30 03:40:24;;;;;;;28.50;14.25;;;;;;;2.58;72.77;97286.31;4849575;29;20112;-78
2021/01/30 03:42:50;;;;;;;27.08;15.20;;;;;;;2.59;73.34;97282.63;4849055;29;20029;-76
2021/01/30 03:45:20;;;;;;;23.35;13.77;;;;;;;2.61;72.87;97269.94;4866813;29;20029;-76
2021/01/30 03:47:45;;;;;;;23.38;13.75;;;;;;;2.63;72.82;97262.56;4849368;29;20053;-76
2021/01/30 03:50:12;;;;;;;24.40;14.15;;;;;;;2.57;72.84;97247.78;4867627;29;20032;-78
2021/01/30 03:52:38;;;;;;;25.27;14.05;;;;;;;2.58;72.63;97253.88;4848665;29;20032;-77
2021/01/30 03:55:04;;;;;;;24.92;13.80;;;;;;;2.59;72.83;97252.78;4869701;29;20033;-78
2021/01/30 03:57:30;;;;;;;24.85;13.80;;;;;;;2.62;72.87;97242.50;4868598;29;20053;-78
2021/01/30 03:59:55;;;;;;;23.50;13.52;;;;;;;2.64;72.88;97226.41;4869468;29;20064;-79
2021/01/30 04:02:21;;;;;;;28.40;14.43;;;;;;;2.65;73.08;97230.59;4870268;29;20124;-79
2021/01/30 04:04:47;;;;;;;25.63;14.57;;;;;;;2.65;73.13;97215.56;4865624;29;20037;-78
2021/01/30 04:07:14;;;;;;;37.30;18.48;;;;;;;2.65;72.41;97210.28;4854165;29;20033;-79
2021/01/30 04:09:39;;;;;;;22.27;13.45;;;;;;;2.62;72.29;97207.41;4869701;29;20095;-79
2021/01/30 04:12:05;;;;;;;26.20;13.57;;;;;;;2.55;72.63;97191.84;4869978;29;20132;-79
2021/01/30 04:14:31;;;;;;;30.30;15.93;;;;;;;2.53;72.93;97192.13;4865854;29;20101;-79
2021/01/30 04:16:57;;;;;;;34.63;15.52;;;;;;;2.55;72.87;97202.41;4861957;29;20033;-79
2021/01/30 04:19:22;;;;;;;28.90;15.30;;;;;;;2.55;72.98;97197.13;4867332;29;20033;-79
2021/01/30 04:21:48;;;;;;;28.48;14.82;;;;;;;2.51;73.32;97204.00;4869892;29;20025;-79
2021/01/30 04:24:13;;;;;;;28.52;13.88;;;;;;;2.48;73.67;97196.59;4861561;29;20069;-80
2021/01/30 04:26:39;;;;;;;25.15;14.32;;;;;;;2.43;72.92;97191.34;4865214;29;20038;-79
2021/01/30 04:29:04;;;;;;;26.52;14.57;;;;;;;2.38;73.33;97187.69;4858984;29;20029;-79
2021/01/30 04:31:29;;;;;;;31.65;15.23;;;;;;;2.42;73.60;97197.69;4869813;29;20399;-78
2021/01/30 04:33:55;;;;;;;27.75;14.38;;;;;;;2.40;73.59;97188.22;4869618;29;20025;-78
2021/01/30 04:36:21;;;;;;;30.77;14.45;;;;;;;2.39;73.55;97180.53;4866244;29;20029;-78
2021/01/30 04:38:47;;;;;;;28.30;13.90;;;;;;;2.42;73.18;97173.94;4864744;29;20115;-77
2021/01/30 04:41:30;;;;;;;26.20;14.25;;;;;;;2.42;73.14;97166.03;4867958;29;20045;-80
2021/01/30 04:44:11;;;;;;;28.55;14.68;;;;;;;2.40;73.49;97177.66;4868364;29;20131;-77
2021/01/30 04:46:54;;;;;;;23.35;14.00;;;;;;;2.41;73.40;97178.44;4870405;29;20036;-78
2021/01/30 04:49:34;;;;;;;23.73;13.80;;;;;;;2.39;73.74;97184.00;4869446;29;20069;-78
2021/01/30 04:52:24;;;;;;;29.40;15.57;;;;;;;2.41;73.33;97181.06;4867880;29;20085;-78
2021/01/30 04:54:59;;;;;;;28.88;15.35;;;;;;;2.39;73.49;97184.00;4868806;29;20072;-78
2021/01/30 04:57:36;;;;;;;25.45;14.90;;;;;;;2.37;73.48;97172.91;4868788;29;20067;-79
2021/01/30 05:00:24;;;;;;;27.90;15.98;;;;;;;2.40;73.40;97174.22;4868678;29;20029;-77
2021/01/30 05:03:05;;;;;;;33.15;14.88;;;;;;;2.39;73.54;97177.91;4864028;29;20558;-79
2021/01/30 05:05:31;;;;;;;24.70;13.98;;;;;;;2.33;73.95;97169.25;4864689;29;20104;-80
2021/01/30 05:08:03;;;;;;;32.80;15.70;;;;;;;2.31;73.68;97155.50;4862595;29;20029;-77
2021/01/30 05:10:35;;;;;;;32.78;15.05;;;;;;;2.29;74.28;97157.63;4860916;29;20021;-78
2021/01/30 05:13:06;;;;;;;25.48;14.20;;;;;;;2.29;74.17;97160.25;4864119;29;20060;-81
2021/01/30 05:15:48;;;;;;;28.38;14.30;;;;;;;2.25;74.45;97153.94;4866892;29;20070;-78
2021/01/30 05:18:27;;;;;;;22.80;14.35;;;;;;;2.24;74.29;97141.81;4867734;29;20029;-77
2021/01/30 05:21:07;;;;;;;24.98;14.15;;;;;;;2.25;74.38;97140.75;4879045;29;20025;-77
2021/01/30 05:23:34;;;;;;;28.50;14.30;;;;;;;2.29;74.85;97146.28;4862087;29;20033;-79
2021/01/30 05:26:09;;;;;;;30.42;15.68;;;;;;;2.29;74.65;97139.16;4867113;29;20199;-79
2021/01/30 05:28:43;;;;;;;24.17;13.95;;;;;;;2.32;74.49;97141.28;4867732;29;20029;-78
2021/01/30 05:31:41;;;;;;;24.65;13.57;;;;;;;2.35;74.52;97138.09;4863329;29;20116;-77
2021/01/30 05:34:22;;;;;;;22.08;12.75;;;;;;;2.37;74.49;97149.16;4858454;29;20033;-78
2021/01/30 05:36:51;;;;;;;24.30;13.35;;;;;;;2.40;74.48;97142.56;4863386;29;20041;-77
2021/01/30 05:39:26;;;;;;;25.33;13.82;;;;;;;2.40;74.55;97142.56;4882724;29;20033;-79
2021/01/30 05:42:11;;;;;;;24.02;12.85;;;;;;;2.42;74.56;97142.28;4864535;29;20029;-78
2021/01/30 05:44:54;;;;;;;28.25;13.57;;;;;;;2.47;75.13;97145.69;4862808;29;20520;-76
2021/01/30 05:47:24;;;;;;;26.80;13.80;;;;;;;2.47;74.45;97144.91;4879486;29;20076;-76
2021/01/30 05:49:56;;;;;;;24.00;13.63;;;;;;;2.44;74.62;97142.81;4880127;29;20033;-77
2021/01/30 05:52:27;;;;;;;26.30;13.00;;;;;;;2.48;74.99;97149.91;4859830;29;20185;-78
2021/01/30 05:54:53;;;;;;;24.40;13.93;;;;;;;2.49;74.81;97159.41;4851395;29;20077;-80
2021/01/30 05:57:18;;;;;;;26.10;13.70;;;;;;;2.51;74.51;97173.13;4857548;29;20040;-79
2021/01/30 05:59:50;;;;;;;21.02;12.60;;;;;;;2.52;74.61;97174.69;4860161;29;20062;-78
2021/01/30 06:02:19;;;;;;;26.13;14.50;;;;;;;2.57;74.75;97176.53;4859609;29;20172;-79
2021/01/30 06:04:45;;;;;;;25.17;13.60;;;;;;;2.56;74.29;97173.13;4859442;29;20037;-78
2021/01/30 06:07:34;;;;;;;32.22;14.80;;;;;;;2.61;74.37;97174.16;4857217;29;20029;-78
2021/01/30 06:10:18;;;;;;;31.70;14.43;;;;;;;2.53;74.51;97168.38;4853457;29;20132;-78
2021/01/30 06:12:43;;;;;;;22.95;12.80;;;;;;;2.49;74.53;97172.63;4860179;29;20036;-78
2021/01/30 06:15:20;;;;;;;24.55;13.68;;;;;;;2.44;75.07;97174.47;4862585;29;20394;-77
2021/01/30 06:17:46;;;;;;;24.75;12.80;;;;;;;2.41;74.96;97167.88;4862249;29;20024;-77
2021/01/30 06:20:19;;;;;;;20.52;11.52;;;;;;;2.36;75.09;97170.53;4861232;29;20455;-76
2021/01/30 06:23:05;;;;;;;23.20;11.52;;;;;;;2.37;75.47;97167.63;4851616;29;20035;-79
2021/01/30 06:25:38;;;;;;;20.88;11.75;;;;;;;2.38;75.66;97163.13;4863872;29;20499;-78
2021/01/30 06:28:14;;;;;;;20.20;11.77;;;;;;;2.39;75.37;97168.16;4864324;29;20999;-78
2021/01/30 06:30:43;;;;;;;21.65;11.25;;;;;;;2.40;75.51;97164.47;4864188;29;20033;-80
2021/01/30 06:33:30;;;;;;;21.38;11.40;;;;;;;2.37;75.75;97153.66;4863538;29;20378;-78
2021/01/30 06:36:19;;;;;;;19.08;11.85;;;;;;;2.42;75.42;97176.56;4863748;29;20040;-80
2021/01/30 06:38:49;;;;;;;19.40;11.55;;;;;;;2.40;75.53;97177.66;4858878;29;20098;-78
2021/01/30 06:41:27;;;;;;;25.55;12.88;;;;;;;2.42;75.74;97176.56;4863694;29;20029;-80
2021/01/30 06:44:04;;;;;;;26.23;11.48;;;;;;;2.40;75.59;97175.03;4862488;29;20079;-80
2021/01/30 06:46:29;;;;;;;22.45;12.95;;;;;;;2.42;76.04;97177.38;4863423;29;20040;-78
2021/01/30 06:49:12;;;;;;;27.27;13.18;;;;;;;2.36;75.82;97173.19;4862871;29;20092;-78
2021/01/30 06:51:38;;;;;;;26.33;13.77;;;;;;;2.39;75.90;97185.81;4866887;29;20037;-77
2021/01/30 06:54:28;;;;;;;26.88;14.00;;;;;;;2.37;75.89;97187.97;4858800;29;20037;-76
2021/01/30 06:57:13;;;;;;;26.65;14.85;;;;;;;2.38;76.22;97187.69;4827768;29;20036;-76
2021/01/30 06:59:50;;;;;;;30.58;14.05;;;;;;;2.43;76.17;97197.44;4839059;29;20530;-76
2021/01/30 07:02:22;;;;;;;27.75;15.15;;;;;;;2.45;76.00;97197.16;4844536;29;20128;-77
2021/01/30 07:05:15;;;;;;;28.67;14.70;;;;;;;2.49;76.01;97195.56;4843889;29;20128;-78
2021/01/30 07:08:05;;;;;;;26.92;13.85;;;;;;;2.52;75.47;97200.31;4844628;29;20036;-77
2021/01/30 07:10:43;;;;;;;29.60;14.70;;;;;;;2.53;75.63;97197.41;4844868;29;20029;-77
2021/01/30 07:13:31;;;;;;;28.65;13.82;;;;;;;2.53;75.60;97201.91;4845650;29;20034;-79
2021/01/30 07:16:00;;;;;;;;;;;;;;;2.54;75.72;97214.81;4843841;29;20067;-80
2021/01/30 07:18:31;;;;;;;32.67;15.02;;;;;;;2.52;75.70;97216.91;4844963;29;19916;-79
2021/01/30 07:21:18;;;;;;;22.88;14.13;;;;;;;2.54;75.63;97233.28;4845825;29;20191;-78
2021/01/30 07:24:09;;;;;;;27.23;14.63;;;;;;;2.55;75.72;97231.41;4841084;29;20037;-78
2021/01/30 07:26:40;;;;;;;25.40;14.15;;;;;;;2.56;76.30;97235.66;4860275;29;20484;-77
2021/01/30 07:29:12;;;;;;;27.23;13.95;;;;;;;2.53;76.12;97231.69;4844058;29;20125;-77
2021/01/30 07:31:48;;;;;;;29.48;14.98;;;;;;;2.53;75.82;97225.66;4845292;29;20186;-78
2021/01/30 07:34:26;;;;;;;32.33;16.20;;;;;;;2.54;75.81;97217.44;4856313;29;20043;-78
2021/01/30 07:37:10;;;;;;;;;;;;;;;2.52;76.05;97230.13;4842406;29;20098;-78
2021/01/30 07:39:55;;;;;;;33.70;14.85;;;;;;;2.53;76.35;97234.34;4856976;29;19984;-80
2021/01/30 07:42:36;;;;;;;28.80;14.52;;;;;;;2.59;76.14;97240.41;4833450;29;20048;-79
2021/01/30 07:45:23;;;;;;;33.20;16.23;;;;;;;2.63;75.97;97241.44;4857891;29;20033;-79
2021/01/30 07:48:11;;;;;;;29.60;15.02;;;;;;;2.63;75.78;97238.78;4835239;29;20033;-81
2021/01/30 07:50:39;;;;;;;27.65;15.43;;;;;;;2.68;76.04;97249.34;4833792;29;20044;-81
2021/01/30 07:53:39;;;;;;;28.30;14.95;;;;;;;2.71;76.16;97258.56;4856381;29;20033;-81
2021/01/30 07:56:17;;;;;;;31.65;15.02;;;;;;;2.78;75.63;97256.44;4853515;29;20080;-81
2021/01/30 07:58:54;;;;;;;34.08;15.88;;;;;;;2.82;75.79;97261.97;4863019;29;20029;-78
2021/01/30 08:01:41;;;;;;;31.98;15.40;;;;;;;2.88;75.77;97264.34;4862954;29;20044;-78
2021/01/30 08:04:19;;;;;;;28.98;14.05;;;;;;;2.94;75.94;97270.41;4859485;29;20037;-81
2021/01/30 08:07:19;;;;;;;34.38;16.92;;;;;;;3.01;76.11;97268.22;4856432;29;20037;-80
2021/01/30 08:10:11;;;;;;;29.20;14.27;;;;;;;3.12;75.67;97279.53;4860787;29;20398;-79
2021/01/30 08:12:52;;;;;;;26.42;14.05;;;;;;;3.21;75.20;97271.88;4878561;29;20033;-78
2021/01/30 08:15:56;;;;;;;30.05;14.55;;;;;;;3.29;75.56;97273.94;4866187;29;20509;-79
2021/01/30 08:18:38;;;;;;;28.73;14.27;;;;;;;3.38;75.57;97274.13;4860997;29;20037;-77
2021/01/30 08:21:06;;;;;;;29.52;15.20;;;;;;;3.45;75.47;97269.34;4851724;29;20036;-78
2021/01/30 08:23:49;;;;;;;30.92;15.13;;;;;;;3.55;75.64;97280.94;4861580;29;20510;-75
2021/01/30 08:26:51;;;;;;;25.63;14.35;;;;;;;3.61;75.56;97288.56;4875717;29;20662;-76
2021/01/30 08:32:00;;;;;;;26.42;13.90;;;;;;;3.61;74.85;97296.47;4904111;24;20078;-73
2021/01/30 08:34:32;;;;;;;29.60;15.40;;;;;;;3.65;75.10;97302.81;4851419;29;20045;-75
2021/01/30 08:37:20;;;;;;;26.33;14.27;;;;;;;3.63;74.71;97309.44;4831622;29;20029;-74
2021/01/30 08:39:58;;;;;;;29.20;14.85;;;;;;;3.62;75.11;97321.06;4839903;29;20065;-75
2021/01/30 08:42:24;;;;;;;31.58;14.68;;;;;;;3.60;75.02;97328.47;4839478;29;20113;-75
2021/01/30 08:44:54;;;;;;;30.08;14.95;;;;;;;3.58;74.97;97330.63;4839699;29;20186;-75
2021/01/30 08:47:35;;;;;;;34.33;16.65;;;;;;;3.57;75.28;97324.53;4840458;29;20448;-75
2021/01/30 08:50:00;;;;;;;34.15;16.70;;;;;;;3.60;75.09;97326.66;4840574;29;20098;-75
2021/01/30 08:53:08;;;;;;;32.05;16.73;;;;;;;3.62;75.31;97331.66;4839822;29;20460;-74
2021/01/30 08:55:47;;;;;;;33.28;16.75;;;;;;;3.65;75.66;97339.03;4835249;29;20149;-75
2021/01/30 08:58:37;;;;;;;36.13;16.95;;;;;;;3.63;76.03;97344.59;4843945;29;20456;-74
2021/01/30 09:01:11;;;;;;;40.88;19.13;;;;;;;3.63;76.22;97343.81;4838838;29;20033;-74
2021/01/30 09:03:47;;;;;;;37.67;19.15;;;;;;;3.64;76.43;97342.75;4839526;29;20587;-74
2021/01/30 09:06:38;;;;;;;34.85;18.75;;;;;;;3.63;76.21;97335.88;4842202;29;20030;-74
2021/01/30 09:09:25;;;;;;;35.95;19.17;;;;;;;3.59;76.44;97337.47;4836311;29;20560;-74
2021/01/30 09:12:02;;;;;;;37.05;17.90;;;;;;;3.62;76.20;97318.44;4847914;29;20120;-74
2021/01/30 09:14:28;;;;;;;37.67;17.92;;;;;;;3.58;76.84;97320.84;4850849;29;20037;-75
2021/01/30 09:16:56;;;;;;;44.10;20.52;;;;;;;3.59;76.94;97321.59;4857226;29;20021;-75
2021/01/30 09:19:55;;;;;;;36.78;17.98;;;;;;;3.62;76.66;97326.38;4819850;29;20031;-74
2021/01/30 09:22:38;;;;;;;36.00;15.95;;;;;;;3.64;76.50;97340.88;4833841;29;20443;-74
2021/01/30 09:25:07;;;;;;;34.78;18.30;;;;;;;3.67;76.46;97350.94;4842506;29;20038;-74
2021/01/30 09:28:05;;;;;;;35.60;18.05;;;;;;;3.69;76.13;97351.44;4839822;29;20085;-74
2021/01/30 09:30:38;;;;;;;33.00;16.33;;;;;;;3.68;76.26;97336.63;4845027;29;20518;-74
2021/01/30 09:33:34;;;;;;;32.40;17.02;;;;;;;3.76;76.75;97329.19;4849797;29;20042;-74
2021/01/30 09:36:12;;;;;;;33.22;16.05;;;;;;;3.76;76.32;97329.19;4801105;29;20381;-76
2021/01/30 09:38:41;;;;;;;31.67;15.40;;;;;;;3.83;76.13;97338.41;4838673;29;20049;-76
2021/01/30 09:41:27;;;;;;;33.22;17.48;;;;;;;3.88;76.32;97337.56;4838869;29;20029;-76
2021/01/30 09:44:25;;;;;;;35.72;17.55;;;;;;;3.93;75.85;97337.56;4832198;29;20067;-78
2021/01/30 09:46:59;;;;;;;;;;;;;;;3.95;76.09;97339.94;4826325;29;20052;-80
2021/01/30 09:49:33;;;;;;;25.13;14.02;;;;;;;4.03;75.67;97343.84;4839040;29;19912;-79
2021/01/30 09:51:59;;;;;;;27.15;14.63;;;;;;;4.09;75.82;97342.72;4822478;29;20060;-75
2021/01/30 09:54:28;;;;;;;28.38;14.68;;;;;;;4.15;75.43;97347.72;4839029;29;20025;-78
2021/01/30 09:57:02;;;;;;;50.95;23.30;;;;;;;4.21;75.34;97339.75;4823125;29;20029;-77
2021/01/30 09:59:29;;;;;;;92.22;33.60;;;;;;;4.23;75.16;97348.97;4838571;29;20040;-76
2021/01/30 10:02:19;;;;;;;88.70;34.08;;;;;;;4.22;75.30;97334.16;4822229;29;20060;-78
2021/01/30 10:04:45;;;;;;;34.63;19.48;;;;;;;4.30;75.43;97351.31;4821879;29;20029;-77
2021/01/30 10:07:17;;;;;;;39.20;17.05;;;;;;;4.38;75.62;97348.09;4837340;29;20034;-77
2021/01/30 10:09:46;;;;;;;33.97;17.58;;;;;;;4.46;76.00;97350.13;4839315;29;20506;-77
2021/01/30 10:12:14;;;;;;;29.33;14.25;;;;;;;4.53;75.45;97354.31;4817542;29;20030;-77
2021/01/30 10:14:44;;;;;;;28.60;15.48;;;;;;;4.57;75.07;97358.78;4837683;29;20598;-77
2021/01/30 10:17:14;;;;;;;24.33;13.40;;;;;;;4.63;75.22;97367.47;4839425;29;20038;-78
2021/01/30 10:19:40;;;;;;;24.17;12.27;;;;;;;4.70;74.86;97367.94;4823586;29;20030;-78
2021/01/30 10:22:15;;;;;;;25.98;12.45;;;;;;;4.75;75.00;97364.47;4821970;29;20061;-78
2021/01/30 10:24:43;;;;;;;22.77;12.15;;;;;;;4.82;74.66;97370.19;4837968;29;20026;-77
2021/01/30 10:27:21;;;;;;;26.15;13.15;;;;;;;4.89;74.42;97357.41;4837337;29;20040;-78
2021/01/30 10:29:47;;;;;;;25.20;13.98;;;;;;;4.93;74.60;97361.09;4835975;29;20037;-78
2021/01/30 10:32:20;;;;;;;23.98;13.73;;;;;;;4.96;74.49;97365.81;4863341;29;20046;-77
2021/01/30 10:35:02;;;;;;;24.10;12.73;;;;;;;4.97;74.33;97354.16;4857444;29;20476;-78
2021/01/30 10:37:45;;;;;;;23.30;12.10;;;;;;;5.07;74.32;97353.28;4858412;29;20025;-78
2021/01/30 10:40:15;;;;;;;23.92;13.23;;;;;;;5.10;74.35;97344.78;4837757;29;20504;-78
2021/01/30 10:42:41;;;;;;;23.88;12.25;;;;;;;5.18;74.46;97353.94;4848708;29;20034;-78
2021/01/30 10:45:22;;;;;;;22.60;12.45;;;;;;;5.26;73.94;97334.78;4856696;29;20033;-79
2021/01/30 10:48:00;;;;;;;22.10;11.50;;;;;;;5.35;74.06;97340.25;4856915;29;20038;-78
2021/01/30 10:50:52;;;;;;;18.23;9.93;;;;;;;5.41;73.92;97327.72;4841484;29;20034;-78
2021/01/30 10:53:30;;;;;;;20.45;10.18;;;;;;;5.44;73.69;97329.78;4855229;29;20037;-78
2021/01/30 10:55:55;;;;;;;18.90;9.88;;;;;;;5.52;73.50;97329.16;4840992;29;20029;-78
2021/01/30 10:58:27;;;;;;;16.33;8.88;;;;;;;5.58;73.13;97337.84;4838484;29;20037;-75
2021/01/30 11:06:51;;;;;;;14.77;8.20;;;;;;;5.66;72.68;97331.91;5142694;24;20414;-80
2021/01/30 11:09:33;;;;;;;12.70;7.75;;;;;;;5.66;72.56;97331.13;5037622;23;20064;-78
2021/01/30 11:14:35;;;;;;;11.80;6.75;;;;;;;5.68;72.89;97328.97;5322963;23;20064;-75
2021/01/30 11:17:03;;;;;;;13.13;7.35;;;;;;;5.70;72.81;97324.16;4868106;29;20466;-73
2021/01/30 11:19:31;;;;;;;11.93;7.82;;;;;;;5.70;73.38;97324.97;4886498;29;20070;-73
2021/01/30 11:22:06;;;;;;;14.50;7.93;;;;;;;5.76;72.92;97320.34;4880730;29;20033;-73
2021/01/30 11:25:04;;;;;;;13.63;8.15;;;;;;;5.84;72.75;97324.25;4874187;29;20624;-73
2021/01/30 11:27:38;;;;;;;12.20;7.00;;;;;;;5.91;72.60;97329.97;4872577;29;20084;-74
2021/01/30 11:30:15;;;;;;;12.80;7.05;;;;;;;5.98;72.62;97326.94;4880360;29;20032;-73
2021/01/30 11:32:53;;;;;;;13.40;7.05;;;;;;;6.03;72.38;97330.38;4866952;29;20094;-74
2021/01/30 11:35:40;;;;;;;14.95;7.82;;;;;;;6.14;72.13;97327.53;4891690;29;20057;-73
2021/01/30 11:38:21;;;;;;;11.45;6.78;;;;;;;6.19;72.23;97330.91;4879809;29;20393;-74
2021/01/30 11:40:51;;;;;;;11.93;7.95;;;;;;;6.25;72.12;97336.94;4875007;29;20125;-74
2021/01/30 11:43:18;;;;;;;16.00;9.05;;;;;;;6.22;71.74;97321.59;4873197;29;20039;-74
2021/01/30 11:45:44;;;;;;;13.88;6.95;;;;;;;6.27;72.11;97332.13;4884313;29;20487;-74
2021/01/30 11:48:10;;;;;;;12.52;7.35;;;;;;;6.34;71.87;97337.06;4866584;29;20028;-74
2021/01/30 11:50:36;;;;;;;12.43;7.20;;;;;;;6.36;72.33;97342.84;4881562;29;20046;-74
2021/01/30 11:53:22;;;;;;;11.35;6.65;;;;;;;6.43;71.79;97335.31;4883261;29;20560;-76
2021/01/30 11:55:49;;;;;;;11.93;6.90;;;;;;;6.47;71.50;97335.53;4884791;29;20120;-76
2021/01/30 11:58:16;;;;;;;13.00;7.13;;;;;;;6.55;71.77;97335.66;4868366;29;20072;-76
2021/01/30 12:00:42;;;;;;;12.85;7.32;;;;;;;6.60;71.25;97337.44;4861921;29;20036;-77
2021/01/30 12:03:16;;;;;;;14.95;7.15;;;;;;;6.68;70.59;97335.97;4849877;29;20033;-78
2021/01/30 12:05:42;;;;;;;13.27;8.35;;;;;;;6.69;70.81;97341.00;4855829;29;20674;-77
2021/01/30 12:08:10;;;;;;;17.02;8.55;;;;;;;6.76;70.59;97331.84;4856811;29;20144;-78
2021/01/30 12:10:36;;;;;;;15.05;8.90;;;;;;;6.78;70.39;97332.34;4846763;29;20033;-79
2021/01/30 12:13:02;;;;;;;15.25;8.38;;;;;;;6.81;70.49;97334.41;4841534;29;20037;-78
2021/01/30 12:15:27;;;;;;;15.02;8.85;;;;;;;6.86;70.16;97326.34;4842298;29;20546;-78
2021/01/30 12:17:53;;;;;;;13.95;8.00;;;;;;;6.92;70.37;97327.84;4840924;29;20675;-77
2021/01/30 12:20:25;;;;;;;14.23;8.30;;;;;;;6.93;70.55;97337.38;4841674;29;20040;-78
2021/01/30 12:22:50;;;;;;;15.07;8.18;;;;;;;7.00;70.36;97337.78;4828084;29;20067;-78
2021/01/30 12:25:18;;;;;;;17.17;9.75;;;;;;;7.04;70.24;97343.31;4823631;29;20033;-78
2021/01/30 12:27:51;;;;;;;16.70;9.57;;;;;;;7.04;69.84;97348.63;4823179;29;20571;-77
2021/01/30 12:30:19;;;;;;;14.65;8.38;;;;;;;7.06;70.45;97341.16;4839304;29;20050;-78
2021/01/30 12:32:45;;;;;;;18.63;9.70;;;;;;;7.07;69.92;97342.72;4836299;29;20489;-77
2021/01/30 12:35:11;;;;;;;13.60;7.82;;;;;;;7.07;69.54;97356.00;4840968;29;20274;-78
2021/01/30 12:37:37;;;;;;;15.00;9.13;;;;;;;7.04;70.06;97349.41;4838279;29;20025;-77
2021/01/30 12:40:05;;;;;;;20.08;10.07;;;;;;;7.04;70.12;97345.97;4841265;29;20041;-78
2021/01/30 12:42:30;;;;;;;19.48;10.02;;;;;;;7.02;69.90;97343.59;4856974;29;20033;-77
2021/01/30 12:44:57;;;;;;;16.48;8.20;;;;;;;7.01;70.21;97344.69;4841151;29;20030;-77
2021/01/30 12:47:27;;;;;;;17.15;8.73;;;;;;;6.95;70.14;97337.88;4841914;29;20112;-77
2021/01/30 12:49:53;;;;;;;14.13;8.70;;;;;;;6.98;70.72;97339.16;4840949;29;20544;-78
2021/01/30 12:52:19;;;;;;;17.10;8.35;;;;;;;6.99;70.88;97348.72;4856159;29;20033;-77
2021/01/30 12:54:44;;;;;;;12.80;9.48;;;;;;;6.97;71.07;97348.22;4841430;29;20391;-78
2021/01/30 12:57:10;;;;;;;19.08;9.98;;;;;;;6.96;70.68;97352.75;4841969;29;20025;-78
2021/01/30 12:59:36;;;;;;;17.88;11.10;;;;;;;6.98;71.20;97352.44;4839805;29;20484;-78